Time;durP1;ratioP1;P1;durP2;ratioP2;P2;SDS_P1;SDS_P2;PMS_P1;PMS_P2;Temp;Humidity;BMP_temperature;BMP_pressure;BME280_temperature;BME280_humidity;BME280_pressure;Samples;Min_cycle;Max_cycle;Signal;HPM_P1;HPM_P2
2022/08/13 00:01:27;;;;;;;3.00;1.10;;;;;;;18.57;49.63;98955.41;5126897;27;20047;-76
2022/08/13 00:03:55;;;;;;;1.08;0.98;;;;;;;18.36;49.79;98938.44;5128014;27;20039;-76
2022/08/13 00:06:58;;;;;;;1.10;0.93;;;;;;;18.44;49.36;98939.16;5128656;27;20039;-77
2022/08/13 00:09:17;;;;;;;3.78;0.90;;;;;;;18.48;49.62;98945.84;5115106;27;20410;-76
2022/08/13 00:14:32;;;;;;;2.58;1.05;;;;;;;18.31;50.09;98941.09;5119027;27;20603;-76
2022/08/13 00:16:59;;;;;;;1.42;0.77;;;;;;;18.20;50.38;98919.91;5130019;27;20079;-76
2022/08/13 00:19:30;;;;;;;1.02;1.00;;;;;;;18.12;50.61;98926.63;5123694;27;20074;-77
2022/08/13 00:21:57;;;;;;;1.15;1.08;;;;;;;18.06;50.63;98935.84;5133106;27;20092;-76
2022/08/13 00:24:26;;;;;;;3.10;1.08;;;;;;;17.95;51.26;98934.75;5123559;27;20051;-76
2022/08/13 00:26:52;;;;;;;7.25;0.90;;;;;;;17.96;51.50;98950.19;5122341;27;20038;-76
2022/08/13 00:29:19;;;;;;;0.95;0.80;;;;;;;17.62;51.82;98919.63;5132004;27;20035;-77
2022/08/13 00:31:46;;;;;;;1.17;1.08;;;;;;;17.78;52.09;98950.25;5133373;27;20054;-76
2022/08/13 00:34:12;;;;;;;1.80;0.98;;;;;;;17.69;52.51;98936.03;5123343;27;20077;-76
2022/08/13 00:36:39;;;;;;;2.65;0.90;;;;;;;17.58;52.37;98918.44;5123654;27;20053;-76
2022/08/13 00:39:08;;;;;;;0.98;0.88;;;;;;;17.58;52.78;98914.84;5125420;27;20399;-76
2022/08/13 00:41:39;;;;;;;3.00;1.37;;;;;;;17.47;53.12;98920.09;5129343;27;20055;-76
2022/08/13 00:44:08;;;;;;;2.38;1.10;;;;;;;17.49;53.31;98928.09;5118018;27;20071;-76
2022/08/13 00:46:35;;;;;;;1.00;0.90;;;;;;;17.63;53.94;98945.19;5122358;27;20055;-76
2022/08/13 00:49:03;;;;;;;2.88;1.35;;;;;;;17.38;54.06;98927.00;5127503;27;20047;-76
2022/08/13 00:51:32;;;;;;;1.10;1.00;;;;;;;17.18;55.11;98913.56;5131665;27;20051;-76
2022/08/13 00:54:02;;;;;;;1.60;0.98;;;;;;;17.04;55.53;98904.72;5130452;27;20054;-77
2022/08/13 00:56:34;;;;;;;1.23;0.90;;;;;;;17.03;56.36;98927.72;5122949;27;20055;-76
2022/08/13 00:59:12;;;;;;;2.58;0.73;;;;;;;16.85;56.52;98897.56;5117164;27;20047;-76
2022/08/13 01:01:39;;;;;;;1.73;1.20;;;;;;;16.79;57.16;98910.28;5113425;27;20399;-76
2022/08/13 01:04:07;;;;;;;2.28;1.10;;;;;;;16.82;56.67;98912.56;5110845;27;20043;-76
2022/08/13 01:06:35;;;;;;;1.13;1.02;;;;;;;16.98;56.90;98928.44;5123537;27;20051;-76
2022/08/13 01:09:01;;;;;;;1.98;1.00;;;;;;;16.83;56.42;98896.94;5118851;27;20546;-76
2022/08/13 01:11:28;;;;;;;1.33;1.10;;;;;;;17.01;56.10;98916.13;5112020;27;20546;-76
2022/08/13 01:13:58;;;;;;;1.38;1.15;;;;;;;17.08;56.13;98916.03;5114318;27;20062;-76
2022/08/13 01:16:28;;;;;;;1.85;1.00;;;;;;;16.85;56.20;98892.88;5114416;27;20129;-76
2022/08/13 01:18:55;;;;;;;0.80;0.80;;;;;;;16.92;56.17;98903.81;5117291;27;20049;-77
2022/08/13 01:21:24;;;;;;;0.80;0.80;;;;;;;16.84;56.26;98888.47;5115007;27;20050;-77
2022/08/13 01:23:54;;;;;;;1.50;0.90;;;;;;;16.97;56.74;98929.50;5112803;27;20058;-76
2022/08/13 01:26:23;;;;;;;4.75;0.90;;;;;;;16.79;56.56;98900.13;5111277;27;20042;-76
2022/08/13 01:28:52;;;;;;;3.00;1.00;;;;;;;16.79;56.38;98897.41;5110766;27;20514;-76
2022/08/13 01:31:20;;;;;;;1.50;1.05;;;;;;;16.99;56.28;98924.59;5116899;27;20040;-77
2022/08/13 01:33:48;;;;;;;1.70;1.00;;;;;;;16.94;56.46;98921.72;5117017;27;20399;-76
2022/08/13 01:36:16;;;;;;;3.65;1.00;;;;;;;16.87;56.68;98904.50;5118501;27;20039;-76
2022/08/13 01:38:44;;;;;;;2.28;1.05;;;;;;;16.81;57.61;98916.38;5117117;27;20062;-76
2022/08/13 01:41:12;;;;;;;4.10;1.15;;;;;;;16.76;57.81;98908.00;5115919;27;20051;-76
2022/08/13 01:43:40;;;;;;;1.08;0.98;;;;;;;16.70;58.49;98917.19;5114693;27;20054;-76
2022/08/13 01:46:09;;;;;;;2.08;1.10;;;;;;;16.57;58.99;98913.50;5120545;27;20044;-77
2022/08/13 01:51:29;;;;;;;1.20;1.10;;;;;;;16.49;59.42;98911.09;5111036;27;20062;-76
2022/08/13 01:53:59;;;;;;;1.80;0.95;;;;;;;16.42;59.40;98894.72;5115795;27;20055;-76
2022/08/13 01:56:28;;;;;;;3.05;1.02;;;;;;;16.61;59.35;98914.72;5124513;27;20100;-76
2022/08/13 01:58:57;;;;;;;1.17;1.08;;;;;;;16.43;59.59;98892.81;5119287;27;20508;-77
2022/08/13 02:01:25;;;;;;;1.27;1.17;;;;;;;16.55;59.77;98912.09;5114825;27;20533;-76
2022/08/13 02:03:52;;;;;;;1.55;1.20;;;;;;;16.53;59.67;98898.59;5115353;27;20218;-76
2022/08/13 02:06:22;;;;;;;1.60;1.10;;;;;;;16.68;59.47;98917.41;5121290;27;20485;-77
2022/08/13 02:08:50;;;;;;;;;;;;;;;16.72;59.17;98915.03;5123766;27;20516;-76
2022/08/13 02:11:16;;;;;;;1.20;1.10;;;;;;;16.56;58.78;98878.94;5124891;27;19954;-76
2022/08/13 02:13:45;;;;;;;1.40;1.30;;;;;;;16.69;59.19;98904.50;5124353;27;20409;-76
2022/08/13 02:16:12;;;;;;;1.90;1.17;;;;;;;16.54;59.17;98897.50;5124514;27;20043;-76
2022/08/13 02:18:38;;;;;;;6.43;1.25;;;;;;;16.68;59.22;98913.81;5120204;28;20422;-76
2022/08/13 02:21:05;;;;;;;1.02;0.93;;;;;;;16.47;59.77;98880.31;5116632;28;20051;-76
2022/08/13 02:23:34;;;;;;;2.10;1.02;;;;;;;16.50;60.12;98899.06;5128811;28;20074;-77
2022/08/13 02:26:05;;;;;;;3.70;1.30;;;;;;;16.31;60.86;98883.66;5129984;28;20043;-77
2022/08/13 02:28:39;;;;;;;1.95;1.00;;;;;;;16.26;61.50;98901.66;5128958;27;20055;-76
2022/08/13 02:31:08;;;;;;;4.63;1.20;;;;;;;16.42;61.27;98913.94;5114988;28;20051;-77
2022/08/13 02:33:37;;;;;;;4.10;1.10;;;;;;;16.14;62.15;98881.53;5119486;28;20058;-77
2022/08/13 02:36:10;;;;;;;1.02;1.02;;;;;;;16.14;62.37;98898.00;5125003;28;20359;-76
2022/08/13 02:38:38;;;;;;;2.72;1.45;;;;;;;16.15;61.73;98896.91;5127231;27;20051;-76
2022/08/13 02:43:50;;;;;;;1.30;1.20;;;;;;;16.37;61.71;98919.25;5132539;27;20050;-76
2022/08/13 02:46:21;;;;;;;2.17;1.10;;;;;;;16.05;62.73;98896.63;5131004;27;20058;-77
2022/08/13 02:48:49;;;;;;;1.30;1.20;;;;;;;15.98;63.08;98895.84;5122228;27;20490;-76
2022/08/13 02:51:16;;;;;;;1.08;0.90;;;;;;;15.83;61.96;98888.81;5122364;27;20039;-76
2022/08/13 02:53:43;;;;;;;2.83;1.10;;;;;;;15.78;63.05;98916.06;5131664;27;20055;-76
2022/08/13 02:56:10;;;;;;;2.08;1.15;;;;;;;15.61;63.57;98914.91;5126320;27;20048;-76
2022/08/13 02:58:38;;;;;;;1.63;1.10;;;;;;;15.39;64.39;98913.41;5136845;27;20367;-76
2022/08/13 03:01:05;;;;;;;1.38;1.17;;;;;;;15.11;65.46;98897.38;5117881;27;20486;-76
2022/08/13 03:03:33;;;;;;;1.50;1.20;;;;;;;15.10;65.99;98892.97;5115656;28;20058;-76
2022/08/13 03:06:00;;;;;;;1.45;1.20;;;;;;;14.97;66.31;98887.59;5120498;27;20046;-77
2022/08/13 03:08:28;;;;;;;1.13;1.08;;;;;;;15.13;66.37;98897.16;5128869;27;20051;-76
2022/08/13 03:10:56;;;;;;;1.48;1.38;;;;;;;15.21;65.85;98894.97;5123314;27;20070;-76
2022/08/13 03:13:24;;;;;;;2.88;1.15;;;;;;;15.10;66.39;98901.19;5130886;27;20047;-76
2022/08/13 03:15:54;;;;;;;1.33;1.23;;;;;;;15.01;66.53;98886.09;5130990;27;20040;-76
2022/08/13 03:18:21;;;;;;;6.25;1.40;;;;;;;15.14;67.08;98907.06;5130356;27;20078;-76
2022/08/13 03:20:50;;;;;;;3.35;1.15;;;;;;;14.87;67.76;98890.78;5129242;27;20035;-76
2022/08/13 03:23:17;;;;;;;2.33;1.38;;;;;;;15.01;67.56;98895.13;5124630;27;20039;-76
2022/08/13 03:25:44;;;;;;;3.30;1.30;;;;;;;14.99;67.69;98886.28;5129948;27;20035;-76
2022/08/13 03:28:11;;;;;;;1.30;1.20;;;;;;;15.04;68.44;98922.06;5118231;27;20043;-76
2022/08/13 03:30:37;;;;;;;1.67;1.27;;;;;;;14.92;70.05;98914.75;5132409;27;20039;-76
2022/08/13 03:33:06;;;;;;;4.85;1.33;;;;;;;14.58;71.49;98894.91;5127083;27;20406;-76
2022/08/13 03:35:34;;;;;;;2.78;1.30;;;;;;;14.67;71.11;98901.84;5131199;27;20092;-76
2022/08/13 03:38:02;;;;;;;1.42;1.33;;;;;;;14.50;72.00;98909.69;5118238;27;20052;-76
2022/08/13 03:41:00;;;;;;;5.18;1.50;;;;;;;14.71;71.75;98930.47;5125704;27;20529;-76
2022/08/13 03:43:16;;;;;;;1.50;1.20;;;;;;;14.53;72.41;98922.94;5125638;27;20049;-76
2022/08/13 03:45:44;;;;;;;1.63;1.45;;;;;;;14.41;72.68;98917.28;5127267;27;20043;-76
2022/08/13 03:48:13;;;;;;;2.42;1.30;;;;;;;14.40;73.04;98942.94;5127043;27;20104;-76
2022/08/13 03:50:40;;;;;;;2.40;1.50;;;;;;;14.40;73.21;98931.19;5124766;27;20044;-76
2022/08/13 03:53:09;;;;;;;1.35;1.02;;;;;;;14.29;72.52;98905.34;5128714;27;20126;-76
2022/08/13 03:55:37;;;;;;;2.72;1.42;;;;;;;14.16;73.33;98911.69;5127759;27;20571;-76
2022/08/13 03:58:05;;;;;;;3.17;1.50;;;;;;;14.33;73.04;98933.91;5129393;27;20035;-76
2022/08/13 04:00:33;;;;;;;5.65;1.50;;;;;;;14.22;73.63;98931.88;5116775;27;20043;-76
2022/08/13 04:03:01;;;;;;;1.45;1.20;;;;;;;13.96;74.25;98907.09;5133111;27;20099;-76
2022/08/13 04:05:30;;;;;;;1.58;1.42;;;;;;;14.08;73.55;98906.47;5126473;27;20094;-76
2022/08/13 04:07:56;;;;;;;2.63;1.27;;;;;;;14.27;73.24;98932.03;5126902;27;20399;-76
2022/08/13 04:10:24;;;;;;;1.40;1.30;;;;;;;14.07;73.30;98894.66;5118896;27;20058;-76
2022/08/13 04:12:51;;;;;;;2.17;1.55;;;;;;;14.16;74.35;98930.81;5127663;27;20066;-76
2022/08/13 04:15:17;;;;;;;4.55;1.88;;;;;;;13.90;75.01;98909.84;5126624;27;20047;-76
2022/08/13 04:17:44;;;;;;;2.90;1.40;;;;;;;13.86;75.32;98909.41;5133081;27;20078;-76
2022/08/13 04:20:12;;;;;;;3.83;1.35;;;;;;;13.85;74.79;98907.75;5122594;27;20039;-76
2022/08/13 04:22:39;;;;;;;10.48;1.50;;;;;;;13.91;74.70;98901.44;5121501;27;20118;-76
2022/08/13 04:25:07;;;;;;;2.80;1.20;;;;;;;13.97;75.00;98910.66;5133570;27;20047;-76
2022/08/13 04:27:36;;;;;;;6.82;1.65;;;;;;;13.95;75.32;98910.03;5132283;27;20043;-76
2022/08/13 04:30:05;;;;;;;1.35;1.25;;;;;;;14.09;74.45;98913.59;5117695;27;20097;-76
2022/08/13 04:32:40;;;;;;;1.83;1.50;;;;;;;14.06;75.61;98927.69;5121151;27;20387;-76
2022/08/13 04:35:08;;;;;;;3.85;1.35;;;;;;;13.97;75.75;98918.84;5124705;27;20047;-76
2022/08/13 04:37:34;;;;;;;1.77;1.27;;;;;;;13.90;75.36;98897.03;5116554;27;20051;-76
2022/08/13 04:40:01;;;;;;;2.03;1.40;;;;;;;13.86;75.89;98914.88;5119397;27;20055;-76
2022/08/13 04:42:27;;;;;;;2.08;1.75;;;;;;;14.14;75.58;98913.81;5124033;27;20051;-76
2022/08/13 04:44:56;;;;;;;1.90;1.70;;;;;;;13.89;77.09;98928.13;5129010;27;20039;-76
2022/08/13 04:47:23;;;;;;;2.72;1.90;;;;;;;14.08;76.04;98933.78;5118879;27;20042;-76
2022/08/13 04:49:49;;;;;;;2.20;1.30;;;;;;;14.01;77.38;98936.53;5119907;27;20047;-76
2022/08/13 04:52:16;;;;;;;3.92;1.80;;;;;;;14.05;76.95;98923.28;5117117;27;20230;-76
2022/08/13 04:54:43;;;;;;;2.28;1.17;;;;;;;14.11;77.96;98926.00;5115259;27;20410;-76
2022/08/13 04:57:09;;;;;;;3.10;1.40;;;;;;;14.01;78.61;98928.31;5114725;27;20055;-76
2022/08/13 04:59:38;;;;;;;1.63;1.52;;;;;;;14.13;78.76;98936.72;5119133;27;20039;-76
2022/08/13 05:02:06;;;;;;;3.53;1.40;;;;;;;14.26;78.38;98950.34;5116182;27;20040;-76
2022/08/13 05:04:33;;;;;;;1.58;1.48;;;;;;;14.16;78.19;98936.28;5110304;27;20051;-76
2022/08/13 05:06:59;;;;;;;2.28;1.60;;;;;;;14.20;76.73;98936.72;5112386;27;20042;-76
2022/08/13 05:09:26;;;;;;;1.65;1.25;;;;;;;14.41;76.34;98938.34;5116136;27;20482;-77
2022/08/13 05:11:53;;;;;;;2.15;1.48;;;;;;;14.54;76.09;98935.53;5113029;27;20062;-76
2022/08/13 05:14:19;;;;;;;3.53;1.30;;;;;;;14.41;76.86;98933.69;5113539;27;20071;-76
2022/08/13 05:16:46;;;;;;;1.60;1.50;;;;;;;14.38;76.79;98904.06;5109979;27;20058;-76
2022/08/13 05:19:14;;;;;;;3.90;1.67;;;;;;;14.56;77.80;98946.25;5109176;27;20138;-76
2022/08/13 05:21:41;;;;;;;6.75;1.63;;;;;;;14.46;77.39;98941.25;5112424;27;20059;-76
2022/08/13 05:24:08;;;;;;;3.17;1.60;;;;;;;14.43;76.04;98922.53;5114319;27;20112;-76
2022/08/13 05:26:34;;;;;;;1.52;1.42;;;;;;;14.58;76.11;98936.78;5117412;27;20047;-76
2022/08/13 05:29:04;;;;;;;3.70;1.77;;;;;;;14.58;76.13;98938.69;5131605;27;20055;-76
2022/08/13 05:31:31;;;;;;;1.65;1.50;;;;;;;14.65;76.14;98925.84;5124551;27;20039;-76
2022/08/13 05:33:58;;;;;;;1.60;1.50;;;;;;;15.02;75.39;98958.91;5122034;27;20077;-76
2022/08/13 05:36:28;;;;;;;4.20;1.67;;;;;;;14.92;75.44;98942.13;5129122;27;20039;-77
2022/08/13 05:38:55;;;;;;;;;;;;;;;15.17;75.90;98964.94;5131712;27;20122;-77
2022/08/13 05:41:23;;;;;;;2.35;1.40;;;;;;;14.96;75.38;98948.84;5127376;27;20389;-76
2022/08/13 05:43:51;;;;;;;5.85;1.90;;;;;;;15.13;74.46;98938.22;5119556;27;20047;-76
2022/08/13 05:46:18;;;;;;;3.20;1.73;;;;;;;15.31;72.79;98932.00;5123498;27;20097;-76
2022/08/13 05:48:56;;;;;;;6.03;2.03;;;;;;;15.73;72.02;98967.91;5128712;27;20092;-76
2022/08/13 05:51:25;;;;;;;2.13;1.60;;;;;;;15.78;71.37;98970.88;5115938;27;20051;-76
2022/08/13 05:53:54;;;;;;;1.75;1.65;;;;;;;16.10;69.50;98952.44;5126275;27;20051;-76
2022/08/13 05:56:22;;;;;;;6.20;1.83;;;;;;;16.26;66.73;98923.59;5127939;27;20043;-76
2022/08/13 05:58:49;;;;;;;3.33;1.67;;;;;;;16.72;64.53;98942.47;5127893;27;20043;-76
2022/08/13 06:04:01;;;;;;;3.63;1.83;;;;;;;17.45;61.69;98919.50;5123273;27;20050;-76
2022/08/13 06:06:29;;;;;;;4.95;1.80;;;;;;;17.68;60.30;98945.34;5130528;27;20142;-76
2022/08/13 06:08:58;;;;;;;1.77;1.60;;;;;;;18.10;59.00;98927.97;5123826;27;20190;-76
2022/08/13 06:11:26;;;;;;;3.97;1.70;;;;;;;18.83;57.25;98945.75;5118334;27;20047;-76
2022/08/13 06:13:53;;;;;;;6.38;1.80;;;;;;;19.24;55.81;98946.59;5118144;27;20522;-76
2022/08/13 06:16:21;;;;;;;2.65;1.65;;;;;;;19.34;54.69;98917.53;5121223;27;20055;-76
2022/08/13 06:18:48;;;;;;;3.40;1.90;;;;;;;19.53;54.33;98942.97;5116370;27;20149;-76
2022/08/13 06:21:17;;;;;;;2.63;2.03;;;;;;;19.59;53.45;98922.69;5123550;27;20127;-76
2022/08/13 06:23:45;;;;;;;2.67;1.48;;;;;;;20.22;52.33;98922.56;5122118;28;20426;-76
2022/08/13 06:26:15;;;;;;;2.03;1.80;;;;;;;20.39;50.74;98928.88;5121068;27;20047;-76
2022/08/13 06:28:42;;;;;;;2.15;1.35;;;;;;;20.72;50.17;98927.13;5130992;28;20058;-77
2022/08/13 06:31:13;;;;;;;2.78;1.50;;;;;;;20.99;48.96;98915.28;5124531;27;20090;-77
2022/08/13 06:33:39;;;;;;;2.08;1.50;;;;;;;21.48;48.10;98928.22;5129604;28;20058;-77
2022/08/13 06:36:08;;;;;;;3.08;1.30;;;;;;;21.91;47.10;98924.47;5126180;27;20051;-77
2022/08/13 06:38:37;;;;;;;2.05;1.38;;;;;;;22.23;46.31;98926.31;5120473;27;20054;-77
2022/08/13 06:41:06;;;;;;;5.72;1.40;;;;;;;22.53;44.98;98927.63;5131044;28;20482;-76
2022/08/13 06:43:36;;;;;;;3.17;1.33;;;;;;;22.77;44.83;98943.81;5126356;27;20043;-77
2022/08/13 06:46:05;;;;;;;1.75;1.40;;;;;;;23.04;43.99;98923.41;5132711;27;20062;-77
2022/08/13 06:48:33;;;;;;;3.63;1.17;;;;;;;23.17;44.27;98947.03;5116847;27;20062;-77
2022/08/13 06:51:00;;;;;;;2.65;1.35;;;;;;;23.26;43.47;98931.50;5131294;28;20088;-77
2022/08/13 06:53:27;;;;;;;5.28;1.38;;;;;;;23.28;42.97;98937.63;5126697;27;20047;-77
2022/08/13 06:55:54;;;;;;;5.50;1.10;;;;;;;23.28;43.10;98930.16;5129964;28;20040;-77
2022/08/13 06:58:25;;;;;;;4.95;1.58;;;;;;;23.40;43.17;98949.31;5122467;27;20039;-76
2022/08/13 07:00:55;;;;;;;2.70;1.35;;;;;;;23.40;43.29;98941.00;5125434;28;20071;-77
2022/08/13 07:03:26;;;;;;;4.82;1.33;;;;;;;22.92;43.45;98926.41;5128885;27;20043;-77
2022/08/13 07:05:53;;;;;;;4.57;0.93;;;;;;;22.97;44.21;98937.50;5130213;28;20043;-77
2022/08/13 07:08:22;;;;;;;3.00;1.25;;;;;;;23.63;43.09;98931.28;5131013;27;20158;-77
2022/08/13 07:11:21;;;;;;;1.77;1.55;;;;;;;23.97;41.64;98925.22;5131230;28;20054;-77
2022/08/13 07:13:39;;;;;;;1.25;1.15;;;;;;;23.91;41.09;98937.44;5122302;28;20498;-77
2022/08/13 07:16:07;;;;;;;3.00;1.05;;;;;;;24.00;40.55;98932.16;5118995;28;20043;-77
2022/08/13 07:18:34;;;;;;;3.75;1.30;;;;;;;23.99;40.96;98936.03;5130435;28;20055;-77
2022/08/13 07:21:03;;;;;;;2.75;1.20;;;;;;;24.16;41.27;98944.06;5131315;28;20058;-77
2022/08/13 07:23:29;;;;;;;4.13;1.10;;;;;;;23.82;41.64;98927.97;5129946;28;20490;-77
2022/08/13 07:25:57;;;;;;;3.42;1.23;;;;;;;24.00;41.61;98949.66;5131965;27;20051;-77
2022/08/13 07:28:26;;;;;;;2.65;1.27;;;;;;;24.09;41.96;98957.41;5131128;27;20498;-77
2022/08/13 07:30:53;;;;;;;6.25;1.50;;;;;;;24.07;41.75;98951.31;5122652;27;20262;-77
2022/08/13 07:33:21;;;;;;;2.97;1.20;;;;;;;23.92;42.10;98955.78;5127224;27;20077;-77
2022/08/13 07:35:47;;;;;;;3.50;1.42;;;;;;;23.62;42.39;98923.25;5126129;27;20493;-76
2022/08/13 07:38:15;;;;;;;2.13;1.60;;;;;;;24.04;41.55;98944.34;5130043;27;20062;-76
2022/08/13 07:40:42;;;;;;;8.90;1.20;;;;;;;24.09;41.21;98949.06;5129932;27;20218;-77
2022/08/13 07:43:12;;;;;;;4.95;1.40;;;;;;;24.20;40.81;98939.63;5125349;27;20051;-76
2022/08/13 07:45:40;;;;;;;2.17;1.23;;;;;;;24.25;40.96;98939.59;5123640;27;20455;-76
2022/08/13 07:48:07;;;;;;;2.85;1.40;;;;;;;24.03;40.99;98910.22;5122579;27;20043;-76
2022/08/13 07:50:36;;;;;;;5.47;1.52;;;;;;;24.45;40.49;98938.75;5131631;27;20129;-76
2022/08/13 07:53:03;;;;;;;1.95;1.20;;;;;;;24.32;41.19;98920.72;5124980;27;20043;-76
2022/08/13 07:55:30;;;;;;;1.75;1.42;;;;;;;24.40;41.08;98935.97;5130360;27;20494;-76
2022/08/13 07:57:56;;;;;;;4.20;1.23;;;;;;;23.99;41.27;98922.16;5125653;27;20126;-76
2022/08/13 08:00:24;;;;;;;6.72;1.27;;;;;;;24.19;41.11;98911.03;5133663;27;20051;-76
2022/08/13 08:02:55;;;;;;;3.65;1.30;;;;;;;24.13;40.97;98936.31;5131866;27;20047;-76
2022/08/13 08:05:24;;;;;;;10.98;1.55;;;;;;;24.33;40.48;98918.78;5123437;27;20043;-77
2022/08/13 08:07:53;;;;;;;2.80;1.30;;;;;;;24.26;40.73;98930.16;5127699;27;20039;-76
2022/08/13 08:10:20;;;;;;;3.10;1.10;;;;;;;24.16;41.22;98913.53;5133677;27;20505;-76
2022/08/13 08:12:47;;;;;;;1.30;1.15;;;;;;;24.41;41.25;98934.84;5124351;27;20046;-76
2022/08/13 08:15:14;;;;;;;1.55;1.05;;;;;;;24.51;40.20;98917.31;5131892;27;20051;-76
2022/08/13 08:17:42;;;;;;;1.30;1.10;;;;;;;24.68;39.96;98942.88;5129600;27;20062;-76
2022/08/13 08:20:10;;;;;;;2.17;1.27;;;;;;;24.84;40.25;98926.97;5127855;27;20396;-77
2022/08/13 08:22:37;;;;;;;2.17;1.20;;;;;;;24.74;41.03;98932.56;5127162;27;20054;-76
2022/08/13 08:25:06;;;;;;;2.80;1.40;;;;;;;24.79;40.51;98913.06;5129937;27;20134;-77
2022/08/13 08:27:33;;;;;;;1.40;1.30;;;;;;;25.09;40.29;98934.31;5133339;27;20070;-77
2022/08/13 08:30:01;;;;;;;1.70;1.20;;;;;;;25.17;38.82;98941.25;5127667;27;20050;-76
2022/08/13 08:32:29;;;;;;;4.30;1.27;;;;;;;25.02;38.24;98908.81;5131397;27;20055;-76
2022/08/13 08:34:56;;;;;;;4.05;1.25;;;;;;;24.79;38.42;98913.06;5128254;27;20047;-76
2022/08/13 08:43:00;;;;;;;3.50;1.00;;;;;;;24.44;40.07;98937.06;5125051;27;20168;-76
2022/08/13 08:45:28;;;;;;;2.20;1.00;;;;;;;24.64;39.39;98935.38;5126717;27;20527;-76
2022/08/13 08:47:54;;;;;;;5.38;1.50;;;;;;;24.50;38.94;98915.66;5132786;27;20050;-76
2022/08/13 08:50:24;;;;;;;1.17;1.08;;;;;;;24.62;39.16;98924.53;5119018;27;20208;-76
2022/08/13 08:55:37;;;;;;;3.85;1.15;;;;;;;25.19;37.92;98941.78;5122420;27;20191;-76
2022/08/13 08:58:06;;;;;;;2.10;1.05;;;;;;;25.15;37.26;98918.44;5132552;27;20039;-76
2022/08/13 09:00:38;;;;;;;2.70;1.40;;;;;;;25.75;37.45;98929.47;5127353;27;20055;-76
2022/08/13 09:03:05;;;;;;;2.15;1.35;;;;;;;25.65;36.24;98898.94;5126146;27;20056;-76
2022/08/13 09:05:32;;;;;;;1.42;1.23;;;;;;;25.74;35.37;98904.69;5120937;27;20047;-77
2022/08/13 09:08:01;;;;;;;1.73;1.23;;;;;;;26.01;35.20;98925.66;5127769;27;20035;-77
2022/08/13 09:10:33;;;;;;;2.83;1.10;;;;;;;25.87;34.96;98898.47;5132937;27;20042;-76
2022/08/13 09:13:02;;;;;;;2.58;1.17;;;;;;;26.04;34.16;98909.19;5121915;27;20327;-76
2022/08/13 09:15:29;;;;;;;5.73;1.23;;;;;;;26.23;33.04;98923.22;5130531;27;20051;-76
2022/08/13 09:17:58;;;;;;;1.23;1.13;;;;;;;26.13;34.74;98923.31;5125972;27;20478;-76
2022/08/13 09:20:26;;;;;;;1.10;1.00;;;;;;;26.37;34.34;98919.72;5123353;27;20062;-76
2022/08/13 09:23:03;;;;;;;2.35;1.20;;;;;;;26.59;33.98;98920.03;5124983;27;20379;-76
2022/08/13 09:25:31;;;;;;;1.92;1.17;;;;;;;26.23;33.10;98895.34;5129760;27;20120;-76
2022/08/13 09:27:58;;;;;;;3.00;1.10;;;;;;;26.53;32.22;98896.13;5122734;27;20048;-76
2022/08/13 09:30:27;;;;;;;3.85;1.00;;;;;;;26.76;32.56;98904.81;5130166;27;20051;-76
2022/08/13 09:32:57;;;;;;;2.20;0.90;;;;;;;26.67;32.85;98883.16;5120943;27;20047;-76
2022/08/13 09:35:25;;;;;;;4.10;1.42;;;;;;;26.82;31.53;98903.63;5127410;27;20233;-76
2022/08/13 09:37:56;;;;;;;1.05;0.95;;;;;;;26.95;30.79;98910.41;5131788;27;20043;-76
2022/08/13 09:40:25;;;;;;;2.05;1.00;;;;;;;26.75;30.39;98884.47;5131700;27;20051;-76
2022/08/13 09:42:57;;;;;;;7.15;1.00;;;;;;;26.87;31.40;98895.16;5131323;27;20070;-76
2022/08/13 09:45:25;;;;;;;1.25;1.05;;;;;;;26.71;32.06;98875.03;5131651;27;20145;-76
2022/08/13 09:47:53;;;;;;;1.63;0.95;;;;;;;26.71;32.19;98904.84;5127428;27;20066;-76
2022/08/13 09:50:21;;;;;;;1.10;1.00;;;;;;;26.76;32.36;98894.47;5125729;27;20055;-76
2022/08/13 09:52:48;;;;;;;4.55;1.30;;;;;;;26.84;31.71;98863.16;5128233;27;20047;-77
2022/08/13 09:55:15;;;;;;;1.67;1.00;;;;;;;26.99;31.05;98890.00;5131617;27;20047;-77
2022/08/13 09:57:51;;;;;;;2.58;0.90;;;;;;;27.00;30.90;98888.84;5130506;27;20047;-76
2022/08/13 10:00:22;;;;;;;1.40;1.05;;;;;;;26.81;31.05;98849.81;5130902;27;20067;-76
2022/08/13 10:02:56;;;;;;;1.42;1.00;;;;;;;26.94;30.82;98862.16;5122055;27;20047;-76
2022/08/13 10:05:25;;;;;;;2.58;1.00;;;;;;;26.99;30.01;98876.06;5131189;27;20055;-76
2022/08/13 10:07:51;;;;;;;4.78;1.23;;;;;;;26.72;29.44;98878.66;5120938;27;20135;-76
2022/08/13 10:10:20;;;;;;;3.08;1.10;;;;;;;26.63;29.50;98886.81;5130960;27;20064;-76
2022/08/13 10:12:47;;;;;;;3.05;1.08;;;;;;;26.89;29.46;98866.97;5110034;28;20410;-76
2022/08/13 10:15:15;;;;;;;1.38;1.00;;;;;;;26.84;29.31;98865.94;5122460;27;20266;-76
2022/08/13 10:17:46;;;;;;;2.78;1.05;;;;;;;26.72;29.12;98859.13;5128958;27;20039;-76
2022/08/13 10:20:16;;;;;;;2.40;1.20;;;;;;;26.99;29.27;98866.84;5129143;27;20039;-75
2022/08/13 10:22:43;;;;;;;1.23;1.10;;;;;;;26.96;30.42;98861.88;5120587;27;20107;-76
2022/08/13 10:25:10;;;;;;;3.40;0.98;;;;;;;27.31;29.93;98866.09;5117169;28;20043;-76
2022/08/13 10:27:37;;;;;;;1.67;1.00;;;;;;;27.69;29.88;98885.59;5129730;28;20043;-76
2022/08/13 10:30:05;;;;;;;1.13;0.95;;;;;;;27.73;29.39;98867.09;5126774;27;20062;-76
2022/08/13 10:32:31;;;;;;;6.15;1.50;;;;;;;27.56;29.43;98844.50;5124619;28;20413;-76
2022/08/13 10:35:00;;;;;;;3.42;1.95;;;;;;;27.76;29.40;98876.00;5124307;28;20047;-76
2022/08/13 10:37:29;;;;;;;4.47;1.17;;;;;;;27.83;29.76;98877.25;5125975;28;20058;-76
2022/08/13 10:39:56;;;;;;;3.35;1.13;;;;;;;27.65;29.17;98851.03;5129912;28;20055;-76
2022/08/13 10:42:23;;;;;;;1.88;1.10;;;;;;;27.71;28.57;98847.00;5115151;27;20056;-76
2022/08/13 10:44:52;;;;;;;4.45;0.98;;;;;;;27.81;28.56;98865.56;5111455;28;20497;-76
2022/08/13 10:47:19;;;;;;;3.63;1.00;;;;;;;27.93;28.54;98865.06;5130669;28;20047;-76
2022/08/13 10:49:49;;;;;;;1.00;0.80;;;;;;;27.88;28.68;98835.28;5114083;28;20080;-76
2022/08/13 10:52:16;;;;;;;;;;;;;;;28.12;28.88;98855.81;5120705;28;20104;-76
2022/08/13 10:54:44;;;;;;;4.30;1.20;;;;;;;28.04;28.69;98851.78;5122050;27;19958;-76
2022/08/13 10:57:10;;;;;;;2.53;1.10;;;;;;;28.33;29.31;98829.09;5130659;28;20498;-76
2022/08/13 10:59:37;;;;;;;3.83;1.00;;;;;;;28.21;28.59;98840.84;5114876;27;20047;-76
2022/08/13 11:02:06;;;;;;;2.30;0.98;;;;;;;28.20;28.60;98816.81;5113278;28;20046;-76
2022/08/13 11:04:33;;;;;;;3.67;1.90;;;;;;;28.20;28.59;98818.78;5132934;27;20047;-76
2022/08/13 11:07:00;;;;;;;1.10;1.00;;;;;;;28.46;28.14;98837.81;5134414;27;20059;-76
2022/08/13 11:09:27;;;;;;;1.05;0.90;;;;;;;29.04;28.42;98830.69;5130975;27;20130;-76
2022/08/13 11:11:57;;;;;;;1.13;1.00;;;;;;;29.17;27.32;98817.81;5131167;27;20058;-76
2022/08/13 11:14:24;;;;;;;1.92;1.42;;;;;;;29.14;26.57;98813.66;5118106;27;20411;-76
2022/08/13 11:17:00;;;;;;;1.40;1.13;;;;;;;28.72;27.32;98821.34;5126028;27;20543;-78
2022/08/13 11:19:29;;;;;;;4.47;1.13;;;;;;;28.56;27.80;98827.25;5127515;27;20071;-78
2022/08/13 11:21:56;;;;;;;1.95;1.20;;;;;;;28.42;27.72;98815.25;5127400;27;20600;-78
2022/08/13 11:24:23;;;;;;;3.63;0.98;;;;;;;28.70;27.83;98820.84;5127123;27;20039;-77
2022/08/13 11:26:49;;;;;;;1.10;1.00;;;;;;;28.96;27.25;98807.91;5122170;27;20500;-77
2022/08/13 11:29:17;;;;;;;1.77;0.88;;;;;;;29.43;25.78;98832.88;5132614;27;20329;-78
2022/08/13 11:31:44;;;;;;;3.95;1.10;;;;;;;28.75;26.39;98804.75;5127481;27;20050;-78
2022/08/13 11:34:11;;;;;;;2.10;1.23;;;;;;;28.90;26.22;98800.78;5131148;27;20070;-78
2022/08/13 11:36:37;;;;;;;1.65;1.10;;;;;;;29.15;25.51;98798.53;5118075;27;20047;-78
2022/08/13 11:39:04;;;;;;;6.03;1.13;;;;;;;29.35;26.51;98797.22;5127917;27;20497;-78
2022/08/13 11:41:30;;;;;;;4.90;0.80;;;;;;;29.41;24.38;98820.31;5134443;27;20088;-78
2022/08/13 11:43:57;;;;;;;1.90;0.93;;;;;;;29.57;24.02;98804.78;5117680;27;20043;-77
2022/08/13 11:46:26;;;;;;;0.90;0.90;;;;;;;29.61;24.74;98790.97;5123834;27;20139;-77
2022/08/13 11:48:53;;;;;;;7.80;1.23;;;;;;;29.70;24.20;98808.63;5123847;27;20044;-77
2022/08/13 11:51:19;;;;;;;1.02;0.93;;;;;;;29.76;24.93;98784.94;5123943;27;20054;-77
2022/08/13 11:53:46;;;;;;;1.50;1.40;;;;;;;30.21;24.51;98797.22;5124293;27;20406;-76
2022/08/13 11:56:12;;;;;;;0.95;0.75;;;;;;;30.01;24.35;98779.81;5124175;27;20375;-78
2022/08/13 11:58:39;;;;;;;1.45;1.00;;;;;;;29.92;24.12;98816.19;5132165;27;20051;-77